sensor_id;sensor_type;location;lat;lon;timestamp;pressure;altitude;pressure_sealevel;temperature;humidity
46682;BME280;34101;53.430;-2.224;2023-04-27T00:01:51;101371.39;;;9.56;56.26
46682;BME280;34101;53.430;-2.224;2023-04-27T00:04:18;101369.72;;;9.58;56.24
46682;BME280;34101;53.430;-2.224;2023-04-27T00:06:45;101366.25;;;9.57;56.28
46682;BME280;34101;53.430;-2.224;2023-04-27T00:09:12;101365.43;;;9.57;56.32
46682;BME280;34101;53.430;-2.224;2023-04-27T00:11:41;101360.01;;;9.57;56.39
46682;BME280;34101;53.430;-2.224;2023-04-27T00:14:08;101352.35;;;9.56;56.47
46682;BME280;34101;53.430;-2.224;2023-04-27T00:16:36;101347.41;;;9.54;56.49
46682;BME280;34101;53.430;-2.224;2023-04-27T00:19:04;101347.46;;;9.53;56.63
46682;BME280;34101;53.430;-2.224;2023-04-27T00:21:31;101348.61;;;9.56;56.57
46682;BME280;34101;53.430;-2.224;2023-04-27T00:24:01;101346.11;;;9.56;56.67
46682;BME280;34101;53.430;-2.224;2023-04-27T00:26:29;101346.61;;;9.58;56.76
46682;BME280;34101;53.430;-2.224;2023-04-27T00:28:56;101344.26;;;9.51;56.82
46682;BME280;34101;53.430;-2.224;2023-04-27T00:31:25;101344.36;;;9.52;56.81
46682;BME280;34101;53.430;-2.224;2023-04-27T00:33:53;101343.35;;;9.54;56.80
46682;BME280;34101;53.430;-2.224;2023-04-27T00:36:21;101342.06;;;9.53;56.80
46682;BME280;34101;53.430;-2.224;2023-04-27T00:38:49;101337.32;;;9.51;56.74
46682;BME280;34101;53.430;-2.224;2023-04-27T00:41:18;101331.86;;;9.47;56.92
46682;BME280;34101;53.430;-2.224;2023-04-27T00:43:45;101330.11;;;9.44;56.99
46682;BME280;34101;53.430;-2.224;2023-04-27T00:46:18;101326.89;;;9.37;57.22
46682;BME280;34101;53.430;-2.224;2023-04-27T00:48:46;101322.10;;;9.29;57.47
46682;BME280;34101;53.430;-2.224;2023-04-27T00:51:14;101324.58;;;9.29;57.34
46682;BME280;34101;53.430;-2.224;2023-04-27T00:53:42;101320.09;;;9.29;57.59
46682;BME280;34101;53.430;-2.224;2023-04-27T00:56:12;101315.92;;;9.27;57.62
46682;BME280;34101;53.430;-2.224;2023-04-27T00:58:39;101312.03;;;9.19;57.78
46682;BME280;34101;53.430;-2.224;2023-04-27T01:01:09;101307.29;;;9.18;57.81
46682;BME280;34101;53.430;-2.224;2023-04-27T01:03:37;101305.66;;;9.18;57.93
46682;BME280;34101;53.430;-2.224;2023-04-27T01:06:05;101308.11;;;9.13;58.08
46682;BME280;34101;53.430;-2.224;2023-04-27T01:08:33;101302.80;;;9.16;58.14
46682;BME280;34101;53.430;-2.224;2023-04-27T01:11:00;101298.39;;;9.15;58.16
46682;BME280;34101;53.430;-2.224;2023-04-27T01:13:28;101303.23;;;9.17;58.17
46682;BME280;34101;53.430;-2.224;2023-04-27T01:15:56;101306.97;;;9.14;58.34
46682;BME280;34101;53.430;-2.224;2023-04-27T01:18:23;101303.84;;;9.16;58.31
46682;BME280;34101;53.430;-2.224;2023-04-27T01:20:51;101305.53;;;9.12;58.43
46682;BME280;34101;53.430;-2.224;2023-04-27T01:23:19;101307.40;;;9.15;58.44
46682;BME280;34101;53.430;-2.224;2023-04-27T01:25:46;101305.87;;;9.16;58.49
46682;BME280;34101;53.430;-2.224;2023-04-27T01:28:15;101309.94;;;9.17;58.54
46682;BME280;34101;53.430;-2.224;2023-04-27T01:30:43;101312.69;;;9.18;58.63
46682;BME280;34101;53.430;-2.224;2023-04-27T01:33:10;101315.30;;;9.16;58.69
46682;BME280;34101;53.430;-2.224;2023-04-27T01:35:39;101314.72;;;9.18;58.67
46682;BME280;34101;53.430;-2.224;2023-04-27T01:38:07;101315.04;;;9.19;58.67
46682;BME280;34101;53.430;-2.224;2023-04-27T01:40:34;101312.41;;;9.22;58.55
46682;BME280;34101;53.430;-2.224;2023-04-27T01:43:01;101312.42;;;9.23;58.42
46682;BME280;34101;53.430;-2.224;2023-04-27T01:45:29;101309.22;;;9.28;58.29
46682;BME280;34101;53.430;-2.224;2023-04-27T01:47:57;101312.16;;;9.32;58.21
46682;BME280;34101;53.430;-2.224;2023-04-27T01:50:24;101315.79;;;9.34;58.12
46682;BME280;34101;53.430;-2.224;2023-04-27T01:52:52;101317.28;;;9.37;58.12
46682;BME280;34101;53.430;-2.224;2023-04-27T01:55:19;101320.10;;;9.42;57.98
46682;BME280;34101;53.430;-2.224;2023-04-27T01:57:47;101319.21;;;9.48;57.68
46682;BME280;34101;53.430;-2.224;2023-04-27T02:00:16;101319.16;;;9.54;57.61
46682;BME280;34101;53.430;-2.224;2023-04-27T02:02:44;101319.16;;;9.61;57.45
46682;BME280;34101;53.430;-2.224;2023-04-27T02:05:12;101320.14;;;9.65;57.56
46682;BME280;34101;53.430;-2.224;2023-04-27T02:07:39;101315.38;;;9.71;57.32
46682;BME280;34101;53.430;-2.224;2023-04-27T02:10:08;101316.08;;;9.74;57.16
46682;BME280;34101;53.430;-2.224;2023-04-27T02:12:36;101316.22;;;9.73;57.28
46682;BME280;34101;53.430;-2.224;2023-04-27T02:15:06;101309.87;;;9.70;57.28
46682;BME280;34101;53.430;-2.224;2023-04-27T02:17:34;101303.49;;;9.71;57.47
46682;BME280;34101;53.430;-2.224;2023-04-27T02:20:03;101301.67;;;9.69;57.31
46682;BME280;34101;53.430;-2.224;2023-04-27T02:22:30;101305.09;;;9.70;57.41
46682;BME280;34101;53.430;-2.224;2023-04-27T02:24:59;101301.35;;;9.68;57.44
46682;BME280;34101;53.430;-2.224;2023-04-27T02:27:31;101297.65;;;9.65;57.47
46682;BME280;34101;53.430;-2.224;2023-04-27T02:30:03;101293.35;;;9.68;57.52
46682;BME280;34101;53.430;-2.224;2023-04-27T02:32:31;101290.96;;;9.72;57.34
46682;BME280;34101;53.430;-2.224;2023-04-27T02:34:59;101287.89;;;9.66;57.27
46682;BME280;34101;53.430;-2.224;2023-04-27T02:37:28;101287.69;;;9.63;57.39
46682;BME280;34101;53.430;-2.224;2023-04-27T02:39:56;101286.69;;;9.62;57.35
46682;BME280;34101;53.430;-2.224;2023-04-27T02:42:23;101281.61;;;9.60;57.29
46682;BME280;34101;53.430;-2.224;2023-04-27T02:44:56;101280.65;;;9.73;57.16
46682;BME280;34101;53.430;-2.224;2023-04-27T02:47:24;101279.06;;;9.80;57.02
46682;BME280;34101;53.430;-2.224;2023-04-27T02:49:51;101280.89;;;9.78;56.93
46682;BME280;34101;53.430;-2.224;2023-04-27T02:52:24;101279.33;;;9.79;56.84
46682;BME280;34101;53.430;-2.224;2023-04-27T02:54:53;101279.45;;;9.69;56.97
46682;BME280;34101;53.430;-2.224;2023-04-27T02:57:20;101277.90;;;9.70;56.96
46682;BME280;34101;53.430;-2.224;2023-04-27T02:59:47;101272.23;;;9.73;56.89
46682;BME280;34101;53.430;-2.224;2023-04-27T03:02:15;101268.86;;;9.73;56.78
46682;BME280;34101;53.430;-2.224;2023-04-27T03:04:42;101264.80;;;9.74;56.72
46682;BME280;34101;53.430;-2.224;2023-04-27T03:07:09;101260.49;;;9.75;56.70
46682;BME280;34101;53.430;-2.224;2023-04-27T03:09:37;101255.97;;;9.79;56.63
46682;BME280;34101;53.430;-2.224;2023-04-27T03:12:05;101249.02;;;9.71;56.66
46682;BME280;34101;53.430;-2.224;2023-04-27T03:14:32;101245.25;;;9.70;56.85
46682;BME280;34101;53.430;-2.224;2023-04-27T03:17:01;101245.61;;;9.63;56.97
46682;BME280;34101;53.430;-2.224;2023-04-27T03:19:29;101245.24;;;9.64;56.81
46682;BME280;34101;53.430;-2.224;2023-04-27T03:22:01;101244.93;;;9.70;56.67
46682;BME280;34101;53.430;-2.224;2023-04-27T03:24:28;101242.29;;;9.62;56.81
46682;BME280;34101;53.430;-2.224;2023-04-27T03:26:56;101244.94;;;9.65;56.81
46682;BME280;34101;53.430;-2.224;2023-04-27T03:29:23;101245.82;;;9.68;56.74
46682;BME280;34101;53.430;-2.224;2023-04-27T03:31:50;101249.09;;;9.71;56.55
46682;BME280;34101;53.430;-2.224;2023-04-27T03:34:18;101250.14;;;9.65;56.72
46682;BME280;34101;53.430;-2.224;2023-04-27T03:36:46;101247.90;;;9.69;56.63
46682;BME280;34101;53.430;-2.224;2023-04-27T03:39:13;101244.89;;;9.63;56.97
46682;BME280;34101;53.430;-2.224;2023-04-27T03:41:40;101240.53;;;9.61;57.02
46682;BME280;34101;53.430;-2.224;2023-04-27T03:44:08;101238.57;;;9.59;56.96
46682;BME280;34101;53.430;-2.224;2023-04-27T03:46:35;101232.48;;;9.53;57.24
46682;BME280;34101;53.430;-2.224;2023-04-27T03:49:02;101232.61;;;9.53;57.22
46682;BME280;34101;53.430;-2.224;2023-04-27T03:51:29;101229.83;;;9.40;57.58
46682;BME280;34101;53.430;-2.224;2023-04-27T03:53:57;101227.61;;;9.44;57.57
46682;BME280;34101;53.430;-2.224;2023-04-27T03:56:29;101229.52;;;9.45;57.62
46682;BME280;34101;53.430;-2.224;2023-04-27T03:58:57;101225.89;;;9.49;57.57
46682;BME280;34101;53.430;-2.224;2023-04-27T04:01:25;101221.08;;;9.48;57.60
46682;BME280;34101;53.430;-2.224;2023-04-27T04:03:52;101220.87;;;9.52;57.44
46682;BME280;34101;53.430;-2.224;2023-04-27T04:06:19;101221.27;;;9.54;57.46
46682;BME280;34101;53.430;-2.224;2023-04-27T04:08:47;101217.74;;;9.48;57.65
46682;BME280;34101;53.430;-2.224;2023-04-27T04:11:14;101215.95;;;9.45;57.66
46682;BME280;34101;53.430;-2.224;2023-04-27T04:13:41;101215.97;;;9.42;57.82
46682;BME280;34101;53.430;-2.224;2023-04-27T04:16:09;101219.52;;;9.37;57.92
46682;BME280;34101;53.430;-2.224;2023-04-27T04:18:36;101221.32;;;9.45;57.81
46682;BME280;34101;53.430;-2.224;2023-04-27T04:21:04;101222.45;;;9.51;57.73
46682;BME280;34101;53.430;-2.224;2023-04-27T04:23:32;101218.13;;;9.46;57.70
46682;BME280;34101;53.430;-2.224;2023-04-27T04:25:59;101216.54;;;9.53;57.63
46682;BME280;34101;53.430;-2.224;2023-04-27T04:28:27;101216.76;;;9.55;57.59
46682;BME280;34101;53.430;-2.224;2023-04-27T04:30:54;101216.59;;;9.56;57.48
46682;BME280;34101;53.430;-2.224;2023-04-27T04:33:22;101213.25;;;9.56;57.55
46682;BME280;34101;53.430;-2.224;2023-04-27T04:35:49;101210.53;;;9.58;57.54
46682;BME280;34101;53.430;-2.224;2023-04-27T04:38:16;101215.85;;;9.57;57.46
46682;BME280;34101;53.430;-2.224;2023-04-27T04:40:43;101213.09;;;9.50;57.69
46682;BME280;34101;53.430;-2.224;2023-04-27T04:43:11;101215.48;;;9.56;57.71
46682;BME280;34101;53.430;-2.224;2023-04-27T04:45:38;101216.30;;;9.60;57.65
46682;BME280;34101;53.430;-2.224;2023-04-27T04:48:05;101216.93;;;9.64;57.48
46682;BME280;34101;53.430;-2.224;2023-04-27T04:50:32;101216.38;;;9.62;57.41
46682;BME280;34101;53.430;-2.224;2023-04-27T04:52:59;101215.77;;;9.55;57.56
46682;BME280;34101;53.430;-2.224;2023-04-27T04:55:28;101218.03;;;9.58;57.66
46682;BME280;34101;53.430;-2.224;2023-04-27T04:57:55;101223.88;;;9.57;57.58
46682;BME280;34101;53.430;-2.224;2023-04-27T05:00:25;101224.98;;;9.53;57.65
46682;BME280;34101;53.430;-2.224;2023-04-27T05:02:52;101225.90;;;9.64;57.32
46682;BME280;34101;53.430;-2.224;2023-04-27T05:05:19;101223.06;;;9.60;57.45
46682;BME280;34101;53.430;-2.224;2023-04-27T05:07:46;101221.61;;;9.66;57.44
46682;BME280;34101;53.430;-2.224;2023-04-27T05:10:14;101220.79;;;9.60;57.56
46682;BME280;34101;53.430;-2.224;2023-04-27T05:12:42;101218.66;;;9.50;57.70
46682;BME280;34101;53.430;-2.224;2023-04-27T05:15:09;101226.66;;;9.62;57.56
46682;BME280;34101;53.430;-2.224;2023-04-27T05:17:37;101228.12;;;9.63;57.36
46682;BME280;34101;53.430;-2.224;2023-04-27T05:20:06;101225.72;;;9.63;57.45
46682;BME280;34101;53.430;-2.224;2023-04-27T05:22:34;101223.48;;;9.73;57.31
46682;BME280;34101;53.430;-2.224;2023-04-27T05:25:01;101222.27;;;9.78;57.01
46682;BME280;34101;53.430;-2.224;2023-04-27T05:27:28;101218.39;;;9.83;56.80
46682;BME280;34101;53.430;-2.224;2023-04-27T05:29:55;101212.94;;;9.80;57.01
46682;BME280;34101;53.430;-2.224;2023-04-27T05:32:22;101206.53;;;9.88;56.86
46682;BME280;34101;53.430;-2.224;2023-04-27T05:34:49;101197.48;;;10.01;56.57
46682;BME280;34101;53.430;-2.224;2023-04-27T05:37:16;101192.92;;;10.08;56.41
46682;BME280;34101;53.430;-2.224;2023-04-27T05:39:44;101186.60;;;10.05;56.29
46682;BME280;34101;53.430;-2.224;2023-04-27T05:42:11;101187.07;;;10.08;56.09
46682;BME280;34101;53.430;-2.224;2023-04-27T05:44:37;101188.14;;;10.09;56.01
46682;BME280;34101;53.430;-2.224;2023-04-27T05:47:05;101192.10;;;10.15;56.36
46682;BME280;34101;53.430;-2.224;2023-04-27T05:49:32;101190.39;;;10.12;55.96
46682;BME280;34101;53.430;-2.224;2023-04-27T05:51:58;101188.79;;;10.24;55.76
46682;BME280;34101;53.430;-2.224;2023-04-27T05:54:26;101190.57;;;10.30;55.94
46682;BME280;34101;53.430;-2.224;2023-04-27T05:56:53;101191.02;;;10.29;55.83
46682;BME280;34101;53.430;-2.224;2023-04-27T05:59:21;101186.16;;;10.29;55.66
46682;BME280;34101;53.430;-2.224;2023-04-27T06:01:49;101183.46;;;10.41;55.57
46682;BME280;34101;53.430;-2.224;2023-04-27T06:04:16;101175.55;;;10.41;55.21
46682;BME280;34101;53.430;-2.224;2023-04-27T06:06:44;101172.19;;;10.45;55.54
46682;BME280;34101;53.430;-2.224;2023-04-27T06:09:11;101177.09;;;10.39;55.48
46682;BME280;34101;53.430;-2.224;2023-04-27T06:11:38;101179.21;;;10.45;55.45
46682;BME280;34101;53.430;-2.224;2023-04-27T06:14:05;101179.28;;;10.47;55.41
46682;BME280;34101;53.430;-2.224;2023-04-27T06:16:32;101181.94;;;10.45;55.37
46682;BME280;34101;53.430;-2.224;2023-04-27T06:19:00;101181.44;;;10.57;55.23
46682;BME280;34101;53.430;-2.224;2023-04-27T06:21:30;101187.47;;;10.56;54.99
46682;BME280;34101;53.430;-2.224;2023-04-27T06:23:57;101189.34;;;10.60;54.75
46682;BME280;34101;53.430;-2.224;2023-04-27T06:26:25;101186.87;;;10.64;54.93
46682;BME280;34101;53.430;-2.224;2023-04-27T06:28:52;101185.96;;;10.62;55.03
46682;BME280;34101;53.430;-2.224;2023-04-27T06:31:20;101185.61;;;10.64;54.83
46682;BME280;34101;53.430;-2.224;2023-04-27T06:33:48;101181.92;;;10.62;55.43
46682;BME280;34101;53.430;-2.224;2023-04-27T06:36:14;101184.35;;;10.69;54.83
46682;BME280;34101;53.430;-2.224;2023-04-27T06:38:47;101181.27;;;10.64;54.49
46682;BME280;34101;53.430;-2.224;2023-04-27T06:41:14;101181.32;;;10.70;54.30
46682;BME280;34101;53.430;-2.224;2023-04-27T06:43:42;101181.07;;;10.64;54.48
46682;BME280;34101;53.430;-2.224;2023-04-27T06:46:09;101179.56;;;10.72;54.41
46682;BME280;34101;53.430;-2.224;2023-04-27T06:48:37;101180.21;;;10.82;54.13
46682;BME280;34101;53.430;-2.224;2023-04-27T06:51:04;101175.51;;;10.79;54.11
46682;BME280;34101;53.430;-2.224;2023-04-27T06:53:32;101173.22;;;10.82;54.16
46682;BME280;34101;53.430;-2.224;2023-04-27T06:56:00;101171.02;;;10.97;53.86
46682;BME280;34101;53.430;-2.224;2023-04-27T06:58:27;101166.79;;;10.93;53.86
46682;BME280;34101;53.430;-2.224;2023-04-27T07:00:55;101168.75;;;10.99;53.80
46682;BME280;34101;53.430;-2.224;2023-04-27T07:03:22;101164.86;;;11.04;53.51
46682;BME280;34101;53.430;-2.224;2023-04-27T07:05:49;101162.68;;;10.91;53.90
46682;BME280;34101;53.430;-2.224;2023-04-27T07:08:16;101163.16;;;11.11;53.67
46682;BME280;34101;53.430;-2.224;2023-04-27T07:10:43;101160.71;;;11.19;53.31
46682;BME280;34101;53.430;-2.224;2023-04-27T07:13:10;101160.99;;;11.30;53.18
46682;BME280;34101;53.430;-2.224;2023-04-27T07:15:37;101155.96;;;11.33;52.83
46682;BME280;34101;53.430;-2.224;2023-04-27T07:18:04;101154.34;;;11.36;53.03
46682;BME280;34101;53.430;-2.224;2023-04-27T07:20:32;101157.09;;;11.42;52.66
46682;BME280;34101;53.430;-2.224;2023-04-27T07:23:00;101163.35;;;11.49;52.70
46682;BME280;34101;53.430;-2.224;2023-04-27T07:25:28;101166.08;;;11.53;52.41
46682;BME280;34101;53.430;-2.224;2023-04-27T07:27:55;101173.36;;;11.45;52.42
46682;BME280;34101;53.430;-2.224;2023-04-27T07:30:22;101173.02;;;11.55;52.37
46682;BME280;34101;53.430;-2.224;2023-04-27T07:32:49;101177.74;;;11.40;52.51
46682;BME280;34101;53.430;-2.224;2023-04-27T07:35:16;101180.92;;;11.56;52.30
46682;BME280;34101;53.430;-2.224;2023-04-27T07:37:48;101183.48;;;11.67;52.10
46682;BME280;34101;53.430;-2.224;2023-04-27T07:40:16;101180.35;;;11.72;51.83
46682;BME280;34101;53.430;-2.224;2023-04-27T07:42:43;101179.08;;;11.73;51.69
46682;BME280;34101;53.430;-2.224;2023-04-27T07:45:11;101181.73;;;11.75;51.74
46682;BME280;34101;53.430;-2.224;2023-04-27T07:47:39;101186.39;;;11.89;51.60
46682;BME280;34101;53.430;-2.224;2023-04-27T07:50:07;101180.53;;;11.92;51.40
46682;BME280;34101;53.430;-2.224;2023-04-27T07:52:34;101177.65;;;12.16;51.23
46682;BME280;34101;53.430;-2.224;2023-04-27T07:55:02;101175.47;;;12.41;50.78
46682;BME280;34101;53.430;-2.224;2023-04-27T07:57:29;101173.25;;;12.53;50.30
46682;BME280;34101;53.430;-2.224;2023-04-27T07:59:57;101168.82;;;12.58;49.87
46682;BME280;34101;53.430;-2.224;2023-04-27T08:02:26;101165.62;;;12.76;49.36
46682;BME280;34101;53.430;-2.224;2023-04-27T08:04:53;101159.55;;;12.96;49.02
46682;BME280;34101;53.430;-2.224;2023-04-27T08:07:20;101156.39;;;13.00;48.55
46682;BME280;34101;53.430;-2.224;2023-04-27T08:09:50;101147.64;;;13.04;48.57
46682;BME280;34101;53.430;-2.224;2023-04-27T08:12:17;101145.12;;;13.06;48.64
46682;BME280;34101;53.430;-2.224;2023-04-27T08:14:44;101141.83;;;13.08;48.40
46682;BME280;34101;53.430;-2.224;2023-04-27T08:17:12;101139.45;;;13.31;47.98
46682;BME280;34101;53.430;-2.224;2023-04-27T08:19:40;101138.44;;;13.53;47.59
46682;BME280;34101;53.430;-2.224;2023-04-27T08:22:07;101137.21;;;13.83;46.63
46682;BME280;34101;53.430;-2.224;2023-04-27T08:24:34;101135.46;;;13.86;46.25
46682;BME280;34101;53.430;-2.224;2023-04-27T08:27:01;101139.83;;;13.99;45.69
46682;BME280;34101;53.430;-2.224;2023-04-27T08:29:29;101132.44;;;14.01;45.62
46682;BME280;34101;53.430;-2.224;2023-04-27T08:31:58;101126.60;;;14.01;45.75
46682;BME280;34101;53.430;-2.224;2023-04-27T08:34:27;101120.62;;;14.09;45.38
46682;BME280;34101;53.430;-2.224;2023-04-27T08:36:54;101108.32;;;13.94;45.18
46682;BME280;34101;53.430;-2.224;2023-04-27T08:39:22;101098.06;;;13.87;45.57
46682;BME280;34101;53.430;-2.224;2023-04-27T08:41:49;101092.53;;;14.07;45.38
46682;BME280;34101;53.430;-2.224;2023-04-27T08:44:17;101093.14;;;14.06;45.48
46682;BME280;34101;53.430;-2.224;2023-04-27T08:46:50;101092.21;;;14.07;45.03
46682;BME280;34101;53.430;-2.224;2023-04-27T08:49:17;101090.68;;;13.96;45.13
46682;BME280;34101;53.430;-2.224;2023-04-27T08:51:44;101083.06;;;14.15;45.04
46682;BME280;34101;53.430;-2.224;2023-04-27T08:54:12;101087.06;;;14.03;45.37
46682;BME280;34101;53.430;-2.224;2023-04-27T08:56:39;101086.89;;;14.04;45.64
46682;BME280;34101;53.430;-2.224;2023-04-27T08:59:13;101089.04;;;14.15;45.35
46682;BME280;34101;53.430;-2.224;2023-04-27T09:01:43;101090.50;;;14.28;45.06
46682;BME280;34101;53.430;-2.224;2023-04-27T09:04:11;101085.26;;;14.05;45.34
46682;BME280;34101;53.430;-2.224;2023-04-27T09:06:40;101084.97;;;14.33;45.03
46682;BME280;34101;53.430;-2.224;2023-04-27T09:09:07;101085.74;;;14.49;44.94
46682;BME280;34101;53.430;-2.224;2023-04-27T09:11:35;101089.44;;;14.67;44.53
46682;BME280;34101;53.430;-2.224;2023-04-27T09:14:18;101092.06;;;14.82;44.22
46682;BME280;34101;53.430;-2.224;2023-04-27T09:16:52;101091.49;;;14.84;44.21
46682;BME280;34101;53.430;-2.224;2023-04-27T09:19:23;101087.68;;;14.86;43.68
46682;BME280;34101;53.430;-2.224;2023-04-27T09:22:02;101084.80;;;14.78;44.12
46682;BME280;34101;53.430;-2.224;2023-04-27T09:24:30;101083.18;;;14.82;43.24
46682;BME280;34101;53.430;-2.224;2023-04-27T09:26:57;101085.55;;;14.76;44.20
46682;BME280;34101;53.430;-2.224;2023-04-27T09:29:32;101086.64;;;14.65;44.02
46682;BME280;34101;53.430;-2.224;2023-04-27T09:32:00;101083.18;;;14.70;44.17
46682;BME280;34101;53.430;-2.224;2023-04-27T09:34:37;101082.84;;;14.58;44.39
46682;BME280;34101;53.430;-2.224;2023-04-27T09:37:05;101077.66;;;14.47;44.48
46682;BME280;34101;53.430;-2.224;2023-04-27T09:39:33;101071.51;;;14.27;44.71
46682;BME280;34101;53.430;-2.224;2023-04-27T09:42:02;101074.24;;;14.43;44.51
46682;BME280;34101;53.430;-2.224;2023-04-27T09:44:30;101072.43;;;14.43;43.90
46682;BME280;34101;53.430;-2.224;2023-04-27T09:46:58;101079.01;;;14.47;43.96
46682;BME280;34101;53.430;-2.224;2023-04-27T09:49:27;101072.41;;;14.44;43.77
46682;BME280;34101;53.430;-2.224;2023-04-27T09:51:55;101073.54;;;14.40;43.68
46682;BME280;34101;53.430;-2.224;2023-04-27T09:54:24;101066.05;;;14.33;43.53
46682;BME280;34101;53.430;-2.224;2023-04-27T09:57:01;101064.22;;;14.22;43.59
46682;BME280;34101;53.430;-2.224;2023-04-27T09:59:44;101068.27;;;14.03;43.50
46682;BME280;34101;53.430;-2.224;2023-04-27T10:02:15;101064.84;;;14.18;43.64
46682;BME280;34101;53.430;-2.224;2023-04-27T10:04:59;101071.90;;;14.09;44.05
46682;BME280;34101;53.430;-2.224;2023-04-27T10:07:34;101067.30;;;14.08;43.99
46682;BME280;34101;53.430;-2.224;2023-04-27T10:10:02;101067.63;;;14.12;44.00
46682;BME280;34101;53.430;-2.224;2023-04-27T10:12:33;101064.36;;;14.17;44.07
46682;BME280;34101;53.430;-2.224;2023-04-27T10:15:11;101064.44;;;13.91;44.71
46682;BME280;34101;53.430;-2.224;2023-04-27T10:17:46;101068.07;;;14.03;44.31
46682;BME280;34101;53.430;-2.224;2023-04-27T10:20:14;101068.42;;;13.94;44.65
46682;BME280;34101;53.430;-2.224;2023-04-27T10:22:43;101062.40;;;14.04;44.88
46682;BME280;34101;53.430;-2.224;2023-04-27T10:25:15;101059.61;;;14.14;44.63
46682;BME280;34101;53.430;-2.224;2023-04-27T10:27:43;101053.39;;;14.18;44.46
46682;BME280;34101;53.430;-2.224;2023-04-27T10:30:17;101041.78;;;13.97;44.75
46682;BME280;34101;53.430;-2.224;2023-04-27T10:32:50;101035.38;;;14.10;44.81
46682;BME280;34101;53.430;-2.224;2023-04-27T10:35:19;101034.03;;;14.14;45.12
46682;BME280;34101;53.430;-2.224;2023-04-27T10:37:46;101045.60;;;14.22;44.84
46682;BME280;34101;53.430;-2.224;2023-04-27T10:40:14;101039.30;;;14.13;44.39
46682;BME280;34101;53.430;-2.224;2023-04-27T10:42:42;101040.92;;;14.03;44.85
46682;BME280;34101;53.430;-2.224;2023-04-27T10:45:10;101038.06;;;13.98;44.94
46682;BME280;34101;53.430;-2.224;2023-04-27T10:47:39;101035.26;;;13.87;45.36
46682;BME280;34101;53.430;-2.224;2023-04-27T10:50:09;101037.11;;;13.82;45.29
46682;BME280;34101;53.430;-2.224;2023-04-27T10:52:40;101027.27;;;13.72;45.56
46682;BME280;34101;53.430;-2.224;2023-04-27T10:55:16;101031.45;;;13.85;45.79
46682;BME280;34101;53.430;-2.224;2023-04-27T10:57:46;101030.57;;;14.06;45.50
46682;BME280;34101;53.430;-2.224;2023-04-27T11:00:20;101030.56;;;14.06;45.06
46682;BME280;34101;53.430;-2.224;2023-04-27T11:02:47;101023.64;;;14.17;44.81
46682;BME280;34101;53.430;-2.224;2023-04-27T11:05:17;101014.79;;;14.20;44.87
46682;BME280;34101;53.430;-2.224;2023-04-27T11:07:46;101010.95;;;14.21;44.93
46682;BME280;34101;53.430;-2.224;2023-04-27T11:10:15;101006.41;;;13.91;45.25
46682;BME280;34101;53.430;-2.224;2023-04-27T11:12:42;101000.57;;;14.13;45.01
46682;BME280;34101;53.430;-2.224;2023-04-27T11:15:10;100997.98;;;14.01;45.32
46682;BME280;34101;53.430;-2.224;2023-04-27T11:17:37;100994.22;;;14.19;44.93
46682;BME280;34101;53.430;-2.224;2023-04-27T11:20:06;100985.52;;;14.21;44.93
46682;BME280;34101;53.430;-2.224;2023-04-27T11:22:41;100980.60;;;14.38;44.54
46682;BME280;34101;53.430;-2.224;2023-04-27T11:25:09;100975.27;;;14.28;44.67
46682;BME280;34101;53.430;-2.224;2023-04-27T11:27:37;100974.98;;;14.36;44.24
46682;BME280;34101;53.430;-2.224;2023-04-27T11:30:16;100978.11;;;14.34;44.19
46682;BME280;34101;53.430;-2.224;2023-04-27T11:32:45;100985.61;;;14.24;44.45
46682;BME280;34101;53.430;-2.224;2023-04-27T11:35:12;100974.83;;;14.02;44.32
46682;BME280;34101;53.430;-2.224;2023-04-27T11:37:39;100969.30;;;14.07;44.12
46682;BME280;34101;53.430;-2.224;2023-04-27T11:40:07;100966.47;;;14.28;43.72
46682;BME280;34101;53.430;-2.224;2023-04-27T11:42:34;100973.28;;;14.34;43.87
46682;BME280;34101;53.430;-2.224;2023-04-27T11:45:03;100964.68;;;14.35;43.79
46682;BME280;34101;53.430;-2.224;2023-04-27T11:47:32;100957.87;;;14.26;44.00
46682;BME280;34101;53.430;-2.224;2023-04-27T11:50:01;100952.86;;;14.11;43.97
46682;BME280;34101;53.430;-2.224;2023-04-27T11:52:30;100956.16;;;14.05;44.43
46682;BME280;34101;53.430;-2.224;2023-04-27T11:55:04;100951.44;;;14.21;44.13
46682;BME280;34101;53.430;-2.224;2023-04-27T11:57:33;100949.27;;;13.92;44.64
46682;BME280;34101;53.430;-2.224;2023-04-27T12:00:03;100936.10;;;13.98;44.45
46682;BME280;34101;53.430;-2.224;2023-04-27T12:02:30;100933.04;;;14.05;44.48
46682;BME280;34101;53.430;-2.224;2023-04-27T12:04:59;100922.71;;;14.10;44.18
46682;BME280;34101;53.430;-2.224;2023-04-27T12:07:27;100927.39;;;14.07;44.40
46682;BME280;34101;53.430;-2.224;2023-04-27T12:09:55;100936.52;;;14.06;44.37
46682;BME280;34101;53.430;-2.224;2023-04-27T12:12:23;100923.07;;;13.93;44.38
46682;BME280;34101;53.430;-2.224;2023-04-27T12:14:50;100927.37;;;14.11;43.83
46682;BME280;34101;53.430;-2.224;2023-04-27T12:17:17;100927.39;;;14.07;43.70
46682;BME280;34101;53.430;-2.224;2023-04-27T12:19:44;100936.95;;;14.03;44.09
46682;BME280;34101;53.430;-2.224;2023-04-27T12:22:12;100938.29;;;14.07;43.64
46682;BME280;34101;53.430;-2.224;2023-04-27T12:24:39;100930.05;;;14.01;44.01
46682;BME280;34101;53.430;-2.224;2023-04-27T12:27:06;100916.14;;;14.03;44.25
46682;BME280;34101;53.430;-2.224;2023-04-27T12:29:34;100912.30;;;14.06;44.00
46682;BME280;34101;53.430;-2.224;2023-04-27T12:32:00;100914.05;;;14.14;44.02
46682;BME280;34101;53.430;-2.224;2023-04-27T12:34:28;100912.06;;;14.13;43.95
46682;BME280;34101;53.430;-2.224;2023-04-27T12:36:55;100907.04;;;13.87;44.12
46682;BME280;34101;53.430;-2.224;2023-04-27T12:39:23;100904.50;;;13.90;44.01
46682;BME280;34101;53.430;-2.224;2023-04-27T12:41:51;100910.15;;;13.88;44.29
46682;BME280;34101;53.430;-2.224;2023-04-27T12:44:19;100905.07;;;13.88;44.42
46682;BME280;34101;53.430;-2.224;2023-04-27T12:46:47;100909.76;;;14.07;44.22
46682;BME280;34101;53.430;-2.224;2023-04-27T12:49:14;100904.86;;;14.09;44.32
46682;BME280;34101;53.430;-2.224;2023-04-27T12:51:42;100905.59;;;13.93;44.71